createdAt,value
2019-02-22T00:01:37.208Z,102424.02
2019-02-22T00:04:06.682Z,102419.24
2019-02-22T00:06:36.197Z,102427.78
2019-02-22T00:09:06.902Z,102424.11
2019-02-22T00:11:36.391Z,102430.88
2019-02-22T00:14:05.891Z,102428.61
2019-02-22T00:16:35.433Z,102430.64
2019-02-22T00:19:04.921Z,102440.84
2019-02-22T00:21:34.423Z,102437.38
2019-02-22T00:24:04.039Z,102438.59
2019-02-22T00:26:33.564Z,102448.59
2019-02-22T00:29:03.076Z,102445.02
2019-02-22T00:31:32.604Z,102449.23
2019-02-22T00:34:02.106Z,102450.18
2019-02-22T00:36:31.683Z,102451.56
2019-02-22T00:39:01.156Z,102450.55
2019-02-22T00:41:30.649Z,102452.09
2019-02-22T00:44:00.207Z,102454.27
2019-02-22T00:46:29.714Z,102454.22
2019-02-22T00:48:59.205Z,102462.33
2019-02-22T00:51:28.723Z,102473.05
2019-02-22T00:53:58.250Z,102470.56
2019-02-22T00:56:27.781Z,102474.03
2019-02-22T00:58:57.275Z,102473.95
2019-02-22T01:01:26.765Z,102475.99
2019-02-22T01:03:56.364Z,102476.72
2019-02-22T01:06:25.881Z,102478.07
2019-02-22T01:08:55.439Z,102477.05
2019-02-22T01:11:24.947Z,102478.77
2019-02-22T01:13:54.482Z,102480.20
2019-02-22T01:16:23.987Z,102476.70
2019-02-22T01:18:53.482Z,102478.55
2019-02-22T01:21:22.991Z,102476.09
2019-02-22T01:23:52.499Z,102476.25
2019-02-22T01:26:22.117Z,102473.83
2019-02-22T01:28:51.584Z,102476.38
2019-02-22T01:31:21.089Z,102473.50
2019-02-22T01:33:50.588Z,102478.43
2019-02-22T01:36:20.093Z,102485.05
2019-02-22T01:38:49.614Z,102497.05
2019-02-22T01:41:19.123Z,102494.89
2019-02-22T01:43:48.641Z,102496.67
2019-02-22T01:46:18.134Z,102496.13
2019-02-22T01:48:47.698Z,102491.55
2019-02-22T01:51:17.184Z,102492.38
2019-02-22T01:53:46.671Z,102491.35
2019-02-22T01:56:16.193Z,102487.31
2019-02-22T01:58:48.646Z,102491.10
2019-02-22T02:01:17.003Z,102492.97
2019-02-22T02:03:46.504Z,102486.52
2019-02-22T02:06:16.004Z,102492.52
2019-02-22T02:08:45.723Z,102490.89
2019-02-22T02:11:15.219Z,102490.74
2019-02-22T02:13:44.736Z,102492.51
2019-02-22T02:16:14.236Z,102495.50
2019-02-22T02:18:43.746Z,102497.43
2019-02-22T02:21:13.247Z,102505.55
2019-02-22T02:23:42.755Z,102507.77
2019-02-22T02:26:12.264Z,102499.18
2019-02-22T02:28:41.775Z,102504.23
2019-02-22T02:31:11.293Z,102508.63
2019-02-22T02:33:40.788Z,102504.48
2019-02-22T02:36:10.300Z,102501.20
2019-02-22T02:38:39.796Z,102507.11
2019-02-22T02:41:11.469Z,102508.86
2019-02-22T02:43:40.549Z,102506.16
2019-02-22T02:46:10.030Z,102507.88
2019-02-22T02:48:39.599Z,102509.45
2019-02-22T02:51:09.097Z,102520.73
2019-02-22T02:53:38.609Z,102521.56
2019-02-22T02:56:08.140Z,102523.99
2019-02-22T02:58:37.655Z,102522.14
2019-02-22T03:01:07.140Z,102521.90
2019-02-22T03:03:36.801Z,102521.72
2019-02-22T03:06:16.922Z,102523.67
2019-02-22T03:08:46.429Z,102526.66
2019-02-22T03:11:20.592Z,102515.73
2019-02-22T03:13:47.192Z,102522.77
2019-02-22T03:16:16.766Z,102526.41
2019-02-22T03:18:46.262Z,102523.20
2019-02-22T03:21:15.762Z,102524.03
2019-02-22T03:23:45.274Z,102523.84
2019-02-22T03:26:15.722Z,102526.77
2019-02-22T03:28:45.238Z,102531.34
2019-02-22T03:31:14.750Z,102531.67
2019-02-22T03:33:44.289Z,102528.98
2019-02-22T03:36:13.763Z,102523.80
2019-02-22T03:38:43.274Z,102533.06
2019-02-22T03:41:12.792Z,102536.72
2019-02-22T03:43:42.294Z,102541.32
2019-02-22T03:46:11.798Z,102544.50
2019-02-22T03:48:41.310Z,102545.80
2019-02-22T03:51:10.872Z,102547.25
2019-02-22T03:53:42.019Z,102551.34
2019-02-22T03:56:11.792Z,102555.33
2019-02-22T03:58:41.362Z,102558.73
2019-02-22T04:01:10.999Z,102563.13
2019-02-22T04:03:40.570Z,102558.61
2019-02-22T04:06:10.137Z,102557.52
2019-02-22T04:08:39.628Z,102558.25
2019-02-22T04:11:09.125Z,102556.58
2019-02-22T04:13:38.701Z,102561.00
2019-02-22T04:16:08.253Z,102563.17
2019-02-22T04:18:37.935Z,102563.53
2019-02-22T04:21:07.498Z,102567.77
2019-02-22T04:23:36.985Z,102571.98
2019-02-22T04:26:06.562Z,102568.97
2019-02-22T04:28:36.058Z,102572.13
2019-02-22T04:31:05.647Z,102581.15
2019-02-22T04:33:35.242Z,102577.05
2019-02-22T04:36:04.746Z,102578.20
2019-02-22T04:38:34.257Z,102578.97
2019-02-22T04:41:03.771Z,102585.45
2019-02-22T04:43:33.366Z,102586.73
2019-02-22T04:46:02.853Z,102593.25
2019-02-22T04:48:32.369Z,102597.21
2019-02-22T04:51:01.867Z,102601.95
2019-02-22T04:53:31.428Z,102605.67
2019-02-22T04:56:00.934Z,102602.02
2019-02-22T04:58:30.431Z,102600.83
2019-02-22T05:00:59.939Z,102610.31
2019-02-22T05:03:29.439Z,102611.91
2019-02-22T05:05:58.941Z,102608.77
2019-02-22T05:08:28.449Z,102611.59
2019-02-22T05:10:57.982Z,102613.09
2019-02-22T05:13:27.488Z,102616.30
2019-02-22T05:15:56.981Z,102614.18
2019-02-22T05:18:26.502Z,102614.44
2019-02-22T05:20:56.000Z,102618.10
2019-02-22T05:23:25.508Z,102612.40
2019-02-22T05:25:55.055Z,102608.77
2019-02-22T05:28:24.554Z,102610.02
2019-02-22T05:30:54.073Z,102613.73
2019-02-22T05:33:23.566Z,102615.58
2019-02-22T05:35:53.065Z,102621.92
2019-02-22T05:38:22.574Z,102619.69
2019-02-22T05:40:52.094Z,102629.16
2019-02-22T05:43:21.575Z,102636.28
2019-02-22T05:45:51.169Z,102630.48
2019-02-22T05:48:20.675Z,102640.40
2019-02-22T05:50:50.178Z,102646.05
2019-02-22T05:53:19.661Z,102647.56
2019-02-22T05:55:49.156Z,102652.38
2019-02-22T05:58:18.674Z,102655.59
2019-02-22T06:00:48.174Z,102659.90
2019-02-22T06:03:17.671Z,102657.83
2019-02-22T06:05:47.630Z,102655.45
2019-02-22T06:08:17.193Z,102662.08
2019-02-22T06:10:46.685Z,102665.30
2019-02-22T06:13:16.212Z,102668.42
2019-02-22T06:15:45.718Z,102668.34
2019-02-22T06:18:15.233Z,102674.00
2019-02-22T06:20:44.728Z,102670.42
2019-02-22T06:23:14.245Z,102671.45
2019-02-22T06:25:43.761Z,102675.85
2019-02-22T06:28:13.267Z,102683.28
2019-02-22T06:30:42.753Z,102682.25
2019-02-22T06:33:12.294Z,102687.80
2019-02-22T06:35:41.803Z,102692.44
2019-02-22T06:38:11.361Z,102694.09
2019-02-22T06:40:40.877Z,102702.25
2019-02-22T06:43:10.458Z,102703.02
2019-02-22T06:45:39.951Z,102705.04
2019-02-22T06:48:09.455Z,102707.24
2019-02-22T06:50:38.965Z,102704.23
2019-02-22T06:53:08.555Z,102711.97
2019-02-22T06:55:38.074Z,102704.84
2019-02-22T06:58:07.598Z,102710.98
2019-02-22T07:00:37.138Z,102713.42
2019-02-22T07:03:12.452Z,102709.98
2019-02-22T07:05:42.008Z,102715.44
2019-02-22T07:08:11.491Z,102716.11
2019-02-22T07:10:54.717Z,102722.98
2019-02-22T07:13:24.563Z,102729.05
2019-02-22T07:15:54.155Z,102721.20
2019-02-22T07:18:23.677Z,102730.19
2019-02-22T07:20:53.194Z,102732.01
2019-02-22T07:23:22.809Z,102729.47
2019-02-22T07:25:52.298Z,102739.02
2019-02-22T07:28:21.810Z,102738.61
2019-02-22T07:30:51.316Z,102737.35
2019-02-22T07:33:20.842Z,102742.41
2019-02-22T07:35:50.419Z,102736.84
2019-02-22T07:38:19.917Z,102744.20
2019-02-22T07:40:49.436Z,102746.81
2019-02-22T07:43:18.948Z,102757.00
2019-02-22T07:45:48.445Z,102763.75
2019-02-22T07:48:17.939Z,102766.56
2019-02-22T07:50:56.868Z,102773.15
2019-02-22T07:53:18.663Z,102776.85
2019-02-22T07:55:48.476Z,102781.52
2019-02-22T07:58:18.048Z,102778.34
2019-02-22T08:00:47.654Z,102779.81
2019-02-22T08:03:17.150Z,102786.47
2019-02-22T08:05:46.669Z,102790.05
2019-02-22T08:08:16.157Z,102793.11
2019-02-22T08:10:45.726Z,102795.36
2019-02-22T08:13:19.783Z,102804.03
2019-02-22T08:15:46.501Z,102802.79
2019-02-22T08:18:16.025Z,102819.69
2019-02-22T08:20:45.541Z,102816.34
2019-02-22T08:23:15.193Z,102820.52
2019-02-22T08:25:44.712Z,102822.59
2019-02-22T08:28:14.206Z,102832.92
2019-02-22T08:30:43.691Z,102830.64
2019-02-22T08:33:13.187Z,102833.86
2019-02-22T08:35:42.711Z,102839.85
2019-02-22T08:38:12.211Z,102845.72
2019-02-22T08:40:41.738Z,102850.23
2019-02-22T08:43:11.226Z,102857.69
2019-02-22T08:45:40.713Z,102857.73
2019-02-22T08:48:10.217Z,102861.17
2019-02-22T08:50:39.731Z,102871.14
2019-02-22T08:53:09.246Z,102868.80
2019-02-22T08:55:38.753Z,102879.20
2019-02-22T08:58:08.244Z,102878.32
2019-02-22T09:00:37.893Z,102875.72
2019-02-22T09:03:07.450Z,102885.23
2019-02-22T09:05:37.049Z,102879.73
2019-02-22T09:08:06.618Z,102884.38
2019-02-22T09:10:36.128Z,102886.34
2019-02-22T09:13:05.656Z,102896.34
2019-02-22T09:15:36.149Z,102900.06
2019-02-22T09:18:05.654Z,102900.78
2019-02-22T09:20:35.140Z,102904.97
2019-02-22T09:23:07.298Z,102908.41
2019-02-22T09:25:36.915Z,102911.38
2019-02-22T09:28:06.494Z,102915.09
2019-02-22T09:30:36.003Z,102906.78
2019-02-22T09:33:05.508Z,102914.73
2019-02-22T09:35:35.897Z,102922.52
2019-02-22T09:38:05.733Z,102921.39
2019-02-22T09:40:35.291Z,102918.88
2019-02-22T09:43:04.801Z,102923.55
2019-02-22T09:45:34.360Z,102919.39
2019-02-22T09:48:03.949Z,102916.64
2019-02-22T09:50:33.479Z,102920.89
2019-02-22T09:53:02.984Z,102919.94
2019-02-22T09:55:32.609Z,102922.78
2019-02-22T09:58:02.112Z,102918.75
2019-02-22T10:00:31.601Z,102915.70
2019-02-22T10:03:01.134Z,102923.55
2019-02-22T10:05:30.768Z,102919.52
2019-02-22T10:08:00.294Z,102916.62
2019-02-22T10:10:29.808Z,102917.00
2019-02-22T10:12:59.403Z,102920.94
2019-02-22T10:15:28.904Z,102927.87
2019-02-22T10:17:58.408Z,102930.72
2019-02-22T10:20:27.985Z,102928.22
2019-02-22T10:22:57.487Z,102921.66
2019-02-22T10:25:26.998Z,102922.18
2019-02-22T10:27:56.491Z,102924.07
2019-02-22T10:30:26.012Z,102919.99
2019-02-22T10:32:55.508Z,102922.87
2019-02-22T10:35:24.999Z,102928.11
2019-02-22T10:37:54.484Z,102933.89
2019-02-22T10:40:24.007Z,102936.23
2019-02-22T10:42:53.507Z,102935.37
2019-02-22T10:45:22.994Z,102945.88
2019-02-22T10:47:52.520Z,102943.98
2019-02-22T10:50:22.200Z,102940.34
2019-02-22T10:53:01.786Z,102944.12
2019-02-22T10:55:22.989Z,102939.02
2019-02-22T10:57:52.495Z,102941.95
2019-02-22T11:00:22.150Z,102944.01
2019-02-22T11:02:51.632Z,102945.14
2019-02-22T11:05:21.134Z,102958.86
2019-02-22T11:07:50.603Z,102951.55
2019-02-22T11:10:20.182Z,102955.78
2019-02-22T11:12:49.674Z,102949.33
2019-02-22T11:15:19.320Z,102953.36
2019-02-22T11:17:48.832Z,102954.11
2019-02-22T11:20:18.359Z,102949.52
2019-02-22T11:22:47.835Z,102947.36
2019-02-22T11:25:18.019Z,102948.78
2019-02-22T11:27:47.523Z,102944.74
2019-02-22T11:30:17.138Z,102942.27
2019-02-22T11:32:46.663Z,102934.46
2019-02-22T11:35:16.152Z,102943.64
2019-02-22T11:37:45.642Z,102946.20
2019-02-22T11:40:15.138Z,102947.77
2019-02-22T11:42:44.628Z,102949.45
2019-02-22T11:45:14.122Z,102954.84
2019-02-22T11:47:43.608Z,102956.05
2019-02-22T11:50:14.135Z,102953.94
2019-02-22T11:52:43.615Z,102952.33
2019-02-22T11:55:13.339Z,102954.18
2019-02-22T11:57:42.840Z,102956.98
2019-02-22T12:00:18.974Z,102947.29
2019-02-22T12:02:49.031Z,102949.59
2019-02-22T12:05:18.532Z,102946.95
2019-02-22T12:07:48.213Z,102944.71
2019-02-22T12:10:17.750Z,102942.70
2019-02-22T12:12:47.246Z,102946.85
2019-02-22T12:15:16.740Z,102944.31
2019-02-22T12:17:46.223Z,102948.32
2019-02-22T12:20:15.834Z,102944.69
2019-02-22T12:22:45.343Z,102947.82
2019-02-22T12:25:14.959Z,102955.11
2019-02-22T12:27:44.481Z,102947.61
2019-02-22T12:30:16.379Z,102951.89
2019-02-22T12:32:45.865Z,102955.18
2019-02-22T12:35:15.412Z,102959.59
2019-02-22T12:37:44.914Z,102958.42
2019-02-22T12:40:14.538Z,102962.55
2019-02-22T12:42:44.093Z,102959.53
2019-02-22T12:45:14.598Z,102960.81
2019-02-22T12:47:44.099Z,102959.14
2019-02-22T12:50:14.672Z,102961.39
2019-02-22T12:52:44.195Z,102959.64
2019-02-22T12:55:13.901Z,102966.47
2019-02-22T12:57:43.379Z,102972.12
2019-02-22T13:00:15.826Z,102973.44
2019-02-22T13:02:45.358Z,102969.92
2019-02-22T13:05:22.073Z,102967.38
2019-02-22T13:07:52.691Z,102978.97
2019-02-22T13:10:22.749Z,102984.69
2019-02-22T13:12:52.308Z,102974.11
2019-02-22T13:15:21.867Z,102978.10
2019-02-22T13:17:51.534Z,102976.63
2019-02-22T13:20:21.250Z,102975.28
2019-02-22T13:22:50.742Z,102970.41
2019-02-22T13:25:20.303Z,102973.06
2019-02-22T13:27:49.810Z,102976.64
2019-02-22T13:30:19.370Z,102967.87
2019-02-22T13:32:48.932Z,102975.08
2019-02-22T13:35:18.424Z,102978.08
2019-02-22T13:37:47.923Z,102982.19
2019-02-22T13:40:18.629Z,102976.58
2019-02-22T13:42:48.211Z,102979.05
2019-02-22T13:45:26.100Z,102977.20
2019-02-22T13:47:49.183Z,102987.79
2019-02-22T13:50:19.578Z,102986.36
2019-02-22T13:52:49.150Z,102978.45
2019-02-22T13:55:18.661Z,102974.19
2019-02-22T13:57:48.154Z,102973.50
2019-02-22T14:00:19.731Z,102976.62
2019-02-22T14:02:49.348Z,102976.79
2019-02-22T14:05:18.903Z,102983.64
2019-02-22T14:07:57.024Z,102983.64
2019-02-22T14:10:27.309Z,102978.33
2019-02-22T14:12:56.927Z,102978.69
2019-02-22T14:15:37.136Z,102982.43
2019-02-22T14:17:57.664Z,102981.77
2019-02-22T14:20:27.168Z,102974.49
2019-02-22T14:22:56.741Z,102972.30
2019-02-22T14:25:26.300Z,102971.02
2019-02-22T14:27:55.863Z,102966.34
2019-02-22T14:30:25.401Z,102959.99
2019-02-22T14:32:54.909Z,102958.19
2019-02-22T14:35:24.499Z,102959.20
2019-02-22T14:37:54.063Z,102965.30
2019-02-22T14:40:23.632Z,102969.47
2019-02-22T14:42:53.124Z,102969.25
2019-02-22T14:45:22.693Z,102968.95
2019-02-22T14:47:52.175Z,102967.70
2019-02-22T14:50:23.306Z,102962.73
2019-02-22T14:52:53.103Z,102962.14
2019-02-22T14:55:22.636Z,102965.70
2019-02-22T14:57:52.188Z,102969.05
2019-02-22T15:00:22.219Z,102967.95
2019-02-22T15:02:51.720Z,102965.23
2019-02-22T15:05:21.292Z,102968.58
2019-02-22T15:07:50.866Z,102971.23
2019-02-22T15:10:20.370Z,102975.32
2019-02-22T15:12:49.925Z,102974.47
2019-02-22T15:15:22.204Z,102977.32
2019-02-22T15:17:53.367Z,102980.98
2019-02-22T15:20:23.006Z,102980.16
2019-02-22T15:22:52.639Z,102978.00
2019-02-22T15:25:22.158Z,102971.13
2019-02-22T15:27:51.639Z,102976.21
2019-02-22T15:30:21.168Z,102974.50
2019-02-22T15:32:50.602Z,102970.88
2019-02-22T15:35:20.205Z,102975.20
2019-02-22T15:37:49.733Z,102985.63
2019-02-22T15:40:19.349Z,102983.02
2019-02-22T15:42:48.819Z,102988.19
2019-02-22T15:45:19.881Z,102986.17
2019-02-22T15:47:49.679Z,102989.98
2019-02-22T15:50:20.211Z,102994.09
2019-02-22T15:52:50.594Z,102994.62
2019-02-22T15:55:20.133Z,102988.15
2019-02-22T15:57:49.740Z,102984.78
2019-02-22T16:00:35.909Z,102985.53
2019-02-22T16:03:05.771Z,102983.05
2019-02-22T16:05:36.948Z,102984.05
2019-02-22T16:08:07.651Z,102983.31
2019-02-22T16:10:37.681Z,102987.56
2019-02-22T16:13:07.338Z,102990.47
2019-02-22T16:15:36.926Z,102997.33
2019-02-22T16:18:06.427Z,102990.84
2019-02-22T16:20:36.017Z,102987.04
2019-02-22T16:23:05.532Z,102989.86
2019-02-22T16:25:34.997Z,102990.62
2019-02-22T16:28:04.589Z,102994.20
2019-02-22T16:30:35.516Z,102985.67
2019-02-22T16:33:05.096Z,102989.22
2019-02-22T16:35:34.599Z,102990.75
2019-02-22T16:38:04.265Z,102997.70
2019-02-22T16:40:33.780Z,102997.22
2019-02-22T16:43:03.265Z,102994.40
2019-02-22T16:45:32.745Z,102999.37
2019-02-22T16:48:02.297Z,102995.86
2019-02-22T16:50:31.843Z,102998.91
2019-02-22T16:53:01.350Z,102995.38
2019-02-22T16:55:30.841Z,102995.74
2019-02-22T16:58:00.410Z,103003.80
2019-02-22T17:00:29.910Z,103005.36
2019-02-22T17:02:59.416Z,103012.20
2019-02-22T17:05:29.083Z,103010.56
2019-02-22T17:07:58.639Z,103015.77
2019-02-22T17:10:28.182Z,103014.92
2019-02-22T17:12:57.705Z,103014.83
2019-02-22T17:15:27.288Z,103016.22
2019-02-22T17:17:56.784Z,103015.57
2019-02-22T17:20:26.289Z,103017.36
2019-02-22T17:22:55.784Z,103024.37
2019-02-22T17:25:25.267Z,103031.73
2019-02-22T17:27:54.843Z,103035.02
2019-02-22T17:30:25.881Z,103037.26
2019-02-22T17:32:55.402Z,103036.76
2019-02-22T17:35:24.925Z,103039.99
2019-02-22T17:37:54.381Z,103042.25
2019-02-22T17:40:31.243Z,103041.17
2019-02-22T17:43:00.809Z,103045.06
2019-02-22T17:45:30.374Z,103042.92
2019-02-22T17:47:59.892Z,103045.41
2019-02-22T17:50:29.402Z,103042.52
2019-02-22T17:52:58.904Z,103045.59
2019-02-22T17:55:28.464Z,103048.19
2019-02-22T17:57:58.082Z,103056.25
2019-02-22T18:00:27.571Z,103057.25
2019-02-22T18:02:57.053Z,103064.62
2019-02-22T18:05:26.562Z,103064.36
2019-02-22T18:07:56.043Z,103064.90
2019-02-22T18:10:25.582Z,103066.97
2019-02-22T18:12:55.073Z,103068.48
2019-02-22T18:15:24.608Z,103061.73
2019-02-22T18:17:54.180Z,103058.34
2019-02-22T18:20:23.734Z,103063.52
2019-02-22T18:22:53.218Z,103069.27
2019-02-22T18:25:22.755Z,103079.56
2019-02-22T18:27:52.242Z,103081.89
2019-02-22T18:30:25.081Z,103085.46
2019-02-22T18:32:54.588Z,103078.89
2019-02-22T18:35:24.073Z,103076.12
2019-02-22T18:37:53.568Z,103078.42
2019-02-22T18:40:24.114Z,103085.34
2019-02-22T18:42:53.625Z,103090.42
2019-02-22T18:45:23.423Z,103091.16
2019-02-22T18:47:52.935Z,103090.28
2019-02-22T18:50:22.544Z,103093.07
2019-02-22T18:52:52.101Z,103085.84
2019-02-22T18:55:21.614Z,103089.48
2019-02-22T18:57:51.192Z,103092.26
2019-02-22T19:00:21.910Z,103088.17
2019-02-22T19:02:51.478Z,103087.30
2019-02-22T19:05:21.149Z,103084.16
2019-02-22T19:07:50.639Z,103089.12
2019-02-22T19:10:20.848Z,103078.97
2019-02-22T19:12:50.324Z,103078.44
2019-02-22T19:15:19.870Z,103076.92
2019-02-22T19:17:49.424Z,103072.81
2019-02-22T19:20:21.533Z,103074.77
2019-02-22T19:22:51.051Z,103069.52
2019-02-22T19:25:20.688Z,103069.78
2019-02-22T19:27:50.361Z,103068.70
2019-02-22T19:30:26.157Z,103069.54
2019-02-22T19:32:57.076Z,103070.54
2019-02-22T19:35:26.572Z,103069.23
2019-02-22T19:37:56.140Z,103063.69
2019-02-22T19:40:28.154Z,103067.51
2019-02-22T19:42:57.656Z,103062.98
2019-02-22T19:45:27.254Z,103064.70
2019-02-22T19:47:56.910Z,103064.80
2019-02-22T19:50:28.383Z,103066.77
2019-02-22T19:52:57.921Z,103077.15
2019-02-22T19:55:27.451Z,103088.70
2019-02-22T19:57:57.076Z,103084.77
2019-02-22T20:00:26.702Z,103087.77
2019-02-22T20:02:56.185Z,103100.16
2019-02-22T20:05:25.763Z,103098.41
2019-02-22T20:07:55.254Z,103096.97
2019-02-22T20:10:25.180Z,103100.64
2019-02-22T20:12:54.696Z,103109.20
2019-02-22T20:15:24.366Z,103104.42
2019-02-22T20:17:55.113Z,103102.84
2019-02-22T20:20:24.887Z,103093.88
2019-02-22T20:22:54.795Z,103102.58
2019-02-22T20:25:24.332Z,103102.28
2019-02-22T20:27:53.859Z,103097.94
2019-02-22T20:30:23.452Z,103107.70
2019-02-22T20:32:52.962Z,103110.72
2019-02-22T20:35:30.109Z,103103.56
2019-02-22T20:37:59.783Z,103114.14
2019-02-22T20:40:29.282Z,103114.87
2019-02-22T20:42:58.867Z,103124.21
2019-02-22T20:45:28.498Z,103126.64
2019-02-22T20:48:05.287Z,103134.81
2019-02-22T20:50:29.399Z,103125.56
2019-02-22T20:52:58.926Z,103130.53
2019-02-22T20:55:28.906Z,103131.20
2019-02-22T20:58:01.488Z,103144.31
2019-02-22T21:00:31.080Z,103141.98
2019-02-22T21:03:00.687Z,103138.88
2019-02-22T21:05:30.283Z,103134.42
2019-02-22T21:07:59.794Z,103136.58
2019-02-22T21:10:29.344Z,103133.38
2019-02-22T21:12:58.901Z,103131.11
2019-02-22T21:15:28.405Z,103133.50
2019-02-22T21:17:57.916Z,103125.23
2019-02-22T21:20:27.416Z,103131.10
2019-02-22T21:22:56.935Z,103137.02
2019-02-22T21:25:26.599Z,103147.52
2019-02-22T21:27:56.132Z,103143.69
2019-02-22T21:30:25.762Z,103146.42
2019-02-22T21:32:55.285Z,103140.58
2019-02-22T21:35:24.759Z,103139.98
2019-02-22T21:37:54.326Z,103145.08
2019-02-22T21:40:24.893Z,103150.00
2019-02-22T21:42:54.408Z,103155.36
2019-02-22T21:45:24.039Z,103150.77
2019-02-22T21:47:55.524Z,103156.86
2019-02-22T21:50:24.745Z,103166.75
2019-02-22T21:52:54.245Z,103160.73
2019-02-22T21:55:23.822Z,103155.92
2019-02-22T21:57:53.318Z,103164.08
2019-02-22T22:00:29.349Z,103174.50
2019-02-22T22:02:58.856Z,103163.95
2019-02-22T22:05:28.444Z,103170.72
2019-02-22T22:07:57.912Z,103175.45
2019-02-22T22:10:27.413Z,103178.08
2019-02-22T22:12:57.930Z,103171.12
2019-02-22T22:15:27.405Z,103174.63
2019-02-22T22:17:56.968Z,103174.41
2019-02-22T22:20:26.621Z,103173.20
2019-02-22T22:22:56.142Z,103167.02
2019-02-22T22:25:25.688Z,103169.71
2019-02-22T22:27:55.252Z,103172.63
2019-02-22T22:30:24.757Z,103171.45
2019-02-22T22:32:54.241Z,103176.98
2019-02-22T22:35:23.739Z,103165.48
2019-02-22T22:37:53.266Z,103171.17
2019-02-22T22:40:22.773Z,103162.50
2019-02-22T22:42:52.270Z,103161.36
2019-02-22T22:45:21.788Z,103167.59
2019-02-22T22:47:51.289Z,103170.01
2019-02-22T22:50:20.796Z,103163.78
2019-02-22T22:52:50.313Z,103161.31
2019-02-22T22:55:19.805Z,103173.38
2019-02-22T22:57:49.324Z,103168.29
2019-02-22T23:00:49.969Z,103178.44
2019-02-22T23:03:20.472Z,103179.95
2019-02-22T23:05:50.023Z,103180.47
2019-02-22T23:08:19.592Z,103181.99
2019-02-22T23:10:49.395Z,103175.95
2019-02-22T23:13:19.012Z,103173.53
2019-02-22T23:15:48.649Z,103173.13
2019-02-22T23:18:18.126Z,103174.98
2019-02-22T23:20:47.747Z,103177.11
2019-02-22T23:23:17.386Z,103182.34
2019-02-22T23:25:46.914Z,103182.09
2019-02-22T23:28:16.457Z,103179.44
2019-02-22T23:30:46.025Z,103178.05
2019-02-22T23:33:15.524Z,103169.11
2019-02-22T23:35:45.030Z,103170.31
2019-02-22T23:38:14.798Z,103169.28
2019-02-22T23:40:44.358Z,103171.60
2019-02-22T23:43:13.864Z,103176.06
2019-02-22T23:45:43.428Z,103172.54
2019-02-22T23:48:12.939Z,103168.93
2019-02-22T23:50:42.512Z,103170.64
2019-02-22T23:53:11.999Z,103168.72
2019-02-22T23:55:41.490Z,103176.22
2019-02-22T23:58:10.980Z,103173.33
